Saint-Pacome, Canada
Current Conditions -  °F | °C
As of 7:53 PM on Monday 26 Jan 2015 (Local Time) from KFVE Reporting Station
Clear Clear  
Wind Chill: -20°   Ceiling: Unl
Heat Index: -3°   Visibility: 10mi
Dew Point: -12°   Wind: 10mph
Humidity: 65%   Direction: 350°N
Pressure: 30.24"   Gusts: NA
Location:  47.42°N, 69.95°W
Report Text: KFVE 270053Z AUTO 35009KT 10SM CLR M19/M24 A3024 RMK AO2 SLP270 T11941244
Loading
Personal Weather Stations






























Interactive Weather Map New forecast layout! Learn more

10-Day Weather Forecast

Advertisements
Track Severe Weather on mobile